KFWA/FWA METAR and TAF weather

Enter ICAO airport designator
Station Type Date Time Source
KFWA METAR 2020/12/01 21:54 UTC NOAA

KFWA 012154Z 28017G27KT 10SM BKN029 01/M03 A2995 RMK PK WND 27029/2127 SLP149 T00061033


Station Type Date Time Source
KFWA Decoded METAR 2020/12/01 21:54 UTC NOAA

FORT WAYNE INTERNATIONAL, IN, United States (KFWA) 41-00N 85-12W 248M
Dec 01, 2020 - 04:54 PM EST / 2020.12.01 2154 UTC
Wind: from the W (280 degrees) at 20 MPH (17 KT) gusting to 31 MPH (27 KT):0
Visibility: 10 mile(s):0
Sky conditions: mostly cloudy
Temperature: 33.1 F (0.6 C)
Windchill: 21 F (-6 C):1
Dew Point: 26.1 F (-3.3 C)
Relative Humidity: 75%
Pressure (altimeter): 29.95 in. Hg (1014 hPa)
ob: KFWA 012154Z 28017G27KT 10SM BKN029 01/M03 A2995 RMK PK WND 27029/2127 SLP149 T00061033
cycle: 22

Station Type Date Time Source
KFWA TAF 2020/12/01 18:24 UTC NOAA

TAF KFWA 011721Z 0118/0218 28016G25KT P6SM BKN025
FM012100 28015G22KT P6SM BKN015
FM020000 28012KT P6SM BKN025
FM020400 27009KT P6SM FEW025

Example: see airport list